createdAt,value
2022-10-06T00:02:12.880Z,7.80
2022-10-06T00:04:59.448Z,7.20
2022-10-06T00:07:35.164Z,6.60
2022-10-06T00:10:18.017Z,7.10
2022-10-06T00:13:05.986Z,7.60
2022-10-06T00:15:58.265Z,7.70
2022-10-06T00:18:51.647Z,7.40
2022-10-06T00:21:28.457Z,7.20
2022-10-06T00:24:25.986Z,7.30
2022-10-06T00:27:07.578Z,6.80
2022-10-06T00:29:55.218Z,7.70
2022-10-06T00:32:40.408Z,7.30
2022-10-06T00:35:28.420Z,7.00
2022-10-06T00:38:05.799Z,6.90
2022-10-06T00:40:53.959Z,7.30
2022-10-06T00:44:11.184Z,7.10
2022-10-06T00:46:54.626Z,7.10
2022-10-06T00:49:44.105Z,6.70
2022-10-06T00:52:21.412Z,6.50
2022-10-06T00:54:55.267Z,6.80
2022-10-06T00:57:35.649Z,7.20
2022-10-06T01:00:13.626Z,7.00
2022-10-06T01:03:04.480Z,6.80
2022-10-06T01:06:00.871Z,7.50
2022-10-06T01:08:59.249Z,7.30
2022-10-06T01:11:56.815Z,6.80
2022-10-06T01:14:38.971Z,6.60
2022-10-06T01:17:40.215Z,6.60
2022-10-06T01:20:57.900Z,7.10
2022-10-06T01:23:35.982Z,7.70
2022-10-06T01:29:10.540Z,6.30
2022-10-06T01:31:44.042Z,6.90
2022-10-06T01:34:19.885Z,7.00
2022-10-06T01:37:08.465Z,6.50
2022-10-06T01:39:45.449Z,6.00
2022-10-06T01:42:35.756Z,5.90
2022-10-06T01:45:06.882Z,6.70
2022-10-06T01:47:48.962Z,6.10
2022-10-06T01:50:22.771Z,6.50
2022-10-06T01:53:00.619Z,6.30
2022-10-06T01:55:44.131Z,6.10
2022-10-06T01:58:23.532Z,6.00
2022-10-06T02:00:58.061Z,6.80
2022-10-06T02:03:31.799Z,6.80
2022-10-06T02:06:18.452Z,6.10
2022-10-06T02:09:04.706Z,6.10
2022-10-06T02:11:54.445Z,6.20
2022-10-06T02:14:35.632Z,6.20
2022-10-06T02:17:12.601Z,5.80
2022-10-06T02:19:53.318Z,6.20
2022-10-06T02:22:29.331Z,5.80
2022-10-06T02:25:35.287Z,5.70
2022-10-06T02:28:16.982Z,6.00
2022-10-06T02:30:52.774Z,5.90
2022-10-06T02:33:26.653Z,6.20
2022-10-06T02:36:10.585Z,6.30
2022-10-06T02:38:57.415Z,5.80
2022-10-06T02:41:25.659Z,6.10
2022-10-06T02:44:09.499Z,6.10
2022-10-06T02:46:47.723Z,6.60
2022-10-06T02:49:34.728Z,5.90
2022-10-06T02:52:03.011Z,6.10
2022-10-06T02:54:30.580Z,5.80
2022-10-06T02:57:20.358Z,5.90
2022-10-06T03:00:13.100Z,6.20
2022-10-06T03:02:46.696Z,6.40
2022-10-06T03:05:30.778Z,6.20
2022-10-06T03:08:39.359Z,6.00
2022-10-06T03:11:22.797Z,5.70
2022-10-06T03:14:10.833Z,6.70
2022-10-06T03:16:54.573Z,6.00
2022-10-06T03:19:25.126Z,5.90
2022-10-06T03:21:55.324Z,5.90
2022-10-06T03:24:30.686Z,5.60
2022-10-06T03:27:24.429Z,6.30
2022-10-06T03:30:07.765Z,6.10
2022-10-06T03:32:44.049Z,6.30
2022-10-06T03:35:35.047Z,5.90
2022-10-06T03:38:12.426Z,5.60
2022-10-06T03:40:42.562Z,6.10
2022-10-06T03:43:47.285Z,5.90
2022-10-06T03:46:52.459Z,5.70
2022-10-06T03:49:33.397Z,6.10
2022-10-06T03:52:25.995Z,5.40
2022-10-06T03:55:15.118Z,5.40
2022-10-06T03:58:08.659Z,6.30
2022-10-06T04:00:42.041Z,6.20
2022-10-06T04:03:10.251Z,6.40
2022-10-06T04:05:47.975Z,5.80
2022-10-06T04:08:32.225Z,5.40
2022-10-06T04:11:14.353Z,6.00
2022-10-06T04:14:16.357Z,5.90
2022-10-06T04:17:04.387Z,5.90
2022-10-06T04:19:43.926Z,5.30
2022-10-06T04:22:27.400Z,6.10
2022-10-06T04:25:00.458Z,6.00
2022-10-06T04:27:54.014Z,5.60
2022-10-06T04:30:31.083Z,6.10
2022-10-06T04:33:26.525Z,6.00
2022-10-06T04:36:10.388Z,5.90
2022-10-06T04:38:46.755Z,6.50
2022-10-06T04:41:32.307Z,5.80
2022-10-06T04:44:47.780Z,6.10
2022-10-06T04:47:20.569Z,6.50
2022-10-06T04:49:56.074Z,6.10
2022-10-06T04:52:29.609Z,5.60
2022-10-06T04:55:11.595Z,5.70
2022-10-06T04:57:48.485Z,6.00
2022-10-06T05:00:28.683Z,6.00
2022-10-06T05:06:27.922Z,5.40
2022-10-06T05:09:10.603Z,5.90
2022-10-06T05:11:52.281Z,5.70
2022-10-06T05:14:38.109Z,5.60
2022-10-06T05:17:16.410Z,6.00
2022-10-06T05:20:21.148Z,5.80
2022-10-06T05:23:10.904Z,6.10
2022-10-06T05:26:12.207Z,6.30
2022-10-06T05:28:53.359Z,6.20
2022-10-06T05:32:20.453Z,5.90
2022-10-06T05:35:01.024Z,6.50
2022-10-06T05:37:36.165Z,6.40
2022-10-06T05:40:16.425Z,5.90
2022-10-06T05:46:04.102Z,6.80
2022-10-06T05:49:03.147Z,5.80
2022-10-06T05:51:37.034Z,5.60
2022-10-06T05:54:12.537Z,5.50
2022-10-06T05:56:53.759Z,5.70
2022-10-06T05:59:35.171Z,5.50
2022-10-06T06:02:46.581Z,5.80
2022-10-06T06:05:32.540Z,6.00
2022-10-06T06:08:08.784Z,6.50
2022-10-06T06:10:55.006Z,5.80
2022-10-06T06:14:00.627Z,5.70
2022-10-06T06:16:36.767Z,5.30
2022-10-06T06:19:16.349Z,5.60
2022-10-06T06:21:52.377Z,5.20
2022-10-06T06:24:43.012Z,5.10
2022-10-06T06:27:12.157Z,5.20
2022-10-06T06:30:03.112Z,5.40
2022-10-06T06:32:41.074Z,6.30
2022-10-06T06:35:29.425Z,4.90
2022-10-06T06:38:09.820Z,4.80
2022-10-06T06:41:02.699Z,4.80
2022-10-06T06:44:06.018Z,5.20
2022-10-06T06:47:01.713Z,5.50
2022-10-06T06:50:35.294Z,5.10
2022-10-06T06:53:24.524Z,4.50
2022-10-06T06:56:04.263Z,5.10
2022-10-06T06:58:50.304Z,4.80
2022-10-06T07:01:57.993Z,5.00
2022-10-06T07:04:46.464Z,4.60
2022-10-06T07:07:15.856Z,4.70
2022-10-06T07:10:01.551Z,4.70
2022-10-06T07:12:43.202Z,4.60
2022-10-06T07:15:36.232Z,4.80
2022-10-06T07:18:30.450Z,4.40
2022-10-06T07:21:23.325Z,4.90
2022-10-06T07:24:12.324Z,4.80
2022-10-06T07:27:15.389Z,5.00
2022-10-06T07:29:58.483Z,4.50
2022-10-06T07:33:04.866Z,4.40
2022-10-06T07:35:40.644Z,5.00
2022-10-06T07:38:28.350Z,5.10
2022-10-06T07:41:20.790Z,4.90
2022-10-06T07:44:16.580Z,4.50
2022-10-06T07:46:57.689Z,4.70
2022-10-06T07:49:32.956Z,4.70
2022-10-06T07:52:14.209Z,4.80
2022-10-06T07:54:49.549Z,5.20
2022-10-06T07:57:32.490Z,5.00
2022-10-06T08:00:10.087Z,4.70
2022-10-06T08:03:04.400Z,4.70
2022-10-06T08:05:57.196Z,5.10
2022-10-06T08:08:34.491Z,4.70
2022-10-06T08:11:12.842Z,5.00
2022-10-06T08:17:02.395Z,4.80
2022-10-06T08:19:42.143Z,4.80
2022-10-06T08:22:16.966Z,4.80
2022-10-06T08:25:07.682Z,4.50
2022-10-06T08:27:53.527Z,4.60
2022-10-06T08:30:27.455Z,4.30
2022-10-06T08:33:09.667Z,5.40
2022-10-06T08:35:53.740Z,5.00
2022-10-06T08:38:44.370Z,4.80
2022-10-06T08:41:50.751Z,4.80
2022-10-06T08:44:42.833Z,4.60
2022-10-06T08:47:22.574Z,4.50
2022-10-06T08:49:54.639Z,4.30
2022-10-06T08:53:00.994Z,4.90
2022-10-06T08:55:42.184Z,4.60
2022-10-06T09:01:44.738Z,4.80
2022-10-06T09:05:07.047Z,4.50
2022-10-06T09:08:10.651Z,4.20
2022-10-06T09:11:07.454Z,4.60
2022-10-06T09:13:39.313Z,4.70
2022-10-06T09:16:16.694Z,4.10
2022-10-06T09:19:07.315Z,4.50
2022-10-06T09:21:46.167Z,4.60
2022-10-06T09:24:17.113Z,4.20
2022-10-06T09:27:00.828Z,4.50
2022-10-06T09:30:02.130Z,4.50
2022-10-06T09:32:34.978Z,4.50
2022-10-06T09:35:35.416Z,4.40
2022-10-06T09:38:09.133Z,4.30
2022-10-06T09:41:32.944Z,4.40
2022-10-06T09:44:08.326Z,4.40
2022-10-06T09:46:48.158Z,4.30
2022-10-06T09:49:31.454Z,4.80
2022-10-06T09:52:30.868Z,4.60
2022-10-06T09:55:14.423Z,5.80
2022-10-06T09:58:17.645Z,4.90
2022-10-06T10:01:10.560Z,4.90
2022-10-06T10:03:51.457Z,4.60
2022-10-06T10:07:34.035Z,4.40
2022-10-06T10:10:35.440Z,5.20
2022-10-06T10:13:42.363Z,4.60
2022-10-06T10:16:19.019Z,4.20
2022-10-06T10:18:51.593Z,4.70
2022-10-06T10:21:47.356Z,4.30
2022-10-06T10:24:52.932Z,4.40
2022-10-06T10:31:15.536Z,4.70
2022-10-06T10:34:51.004Z,4.50
2022-10-06T10:37:46.238Z,5.40
2022-10-06T10:40:51.490Z,4.70
2022-10-06T10:43:32.019Z,4.60
2022-10-06T10:46:23.900Z,5.00
2022-10-06T10:49:12.807Z,4.60
2022-10-06T10:52:02.150Z,5.30
2022-10-06T10:55:00.759Z,5.10
2022-10-06T10:57:52.756Z,4.80
2022-10-06T11:00:29.771Z,6.70
2022-10-06T11:03:11.714Z,7.80
2022-10-06T11:06:16.244Z,6.30
2022-10-06T11:09:12.834Z,5.60
2022-10-06T11:12:06.753Z,6.50
2022-10-06T11:18:47.304Z,6.60
2022-10-06T11:21:35.483Z,5.90
2022-10-06T11:24:40.390Z,5.30
2022-10-06T11:27:45.540Z,6.30
2022-10-06T11:30:26.628Z,5.80
2022-10-06T11:33:40.729Z,5.20
2022-10-06T11:36:25.627Z,5.00
2022-10-06T11:39:18.685Z,4.70
2022-10-06T11:42:34.192Z,4.10
2022-10-06T11:45:18.387Z,4.40
2022-10-06T11:48:25.274Z,4.50
2022-10-06T11:51:17.495Z,5.00
2022-10-06T11:53:53.918Z,5.00
2022-10-06T11:56:30.349Z,4.20
2022-10-06T11:59:16.984Z,4.60
2022-10-06T12:01:53.004Z,3.90
2022-10-06T12:04:36.147Z,4.00
2022-10-06T12:07:24.231Z,4.20
2022-10-06T12:10:28.413Z,3.80
2022-10-06T12:14:12.347Z,4.00
2022-10-06T12:17:10.598Z,3.90
2022-10-06T12:20:32.594Z,3.50
2022-10-06T12:23:52.374Z,3.00
2022-10-06T12:26:29.959Z,3.00
2022-10-06T12:29:33.962Z,3.30
2022-10-06T12:32:36.732Z,3.80
2022-10-06T12:35:16.168Z,2.50
2022-10-06T12:38:08.642Z,2.90
2022-10-06T12:41:00.354Z,2.80
2022-10-06T12:43:56.186Z,2.90
2022-10-06T12:46:41.137Z,3.00
2022-10-06T12:49:42.422Z,3.00
2022-10-06T12:52:30.558Z,4.40
2022-10-06T12:55:29.125Z,3.90
2022-10-06T12:58:03.955Z,3.30
2022-10-06T13:00:50.599Z,3.30
2022-10-06T13:03:29.563Z,3.60
2022-10-06T13:06:03.817Z,3.50
2022-10-06T13:11:53.179Z,3.80
2022-10-06T13:14:25.603Z,3.60
2022-10-06T13:17:03.896Z,3.70
2022-10-06T13:20:03.286Z,3.40
2022-10-06T13:22:54.786Z,3.30
2022-10-06T13:25:42.316Z,3.40
2022-10-06T13:28:38.340Z,3.70
2022-10-06T13:31:34.673Z,3.40
2022-10-06T13:34:16.181Z,3.30
2022-10-06T13:37:11.368Z,3.00
2022-10-06T13:39:39.739Z,2.90
2022-10-06T13:42:33.136Z,2.50
2022-10-06T13:45:16.749Z,2.70
2022-10-06T13:48:13.263Z,2.70
2022-10-06T13:50:46.956Z,2.30
2022-10-06T13:55:04.739Z,2.20
2022-10-06T13:58:15.121Z,2.40
2022-10-06T14:01:35.470Z,2.20
2022-10-06T14:04:28.037Z,2.20
2022-10-06T14:07:30.763Z,1.90
2022-10-06T14:10:29.965Z,2.00
2022-10-06T14:13:23.989Z,1.80
2022-10-06T14:16:03.906Z,2.00
2022-10-06T14:19:02.310Z,1.90
2022-10-06T14:21:58.614Z,1.80
2022-10-06T14:24:38.157Z,2.50
2022-10-06T14:27:25.415Z,2.10
2022-10-06T14:29:53.212Z,2.00
2022-10-06T14:32:55.987Z,1.90
2022-10-06T14:35:40.525Z,2.40
2022-10-06T14:38:28.155Z,2.20
2022-10-06T14:41:31.923Z,2.10
2022-10-06T14:44:08.845Z,2.20
2022-10-06T14:46:37.785Z,2.10
2022-10-06T14:49:20.748Z,2.20
2022-10-06T14:52:05.198Z,1.90
2022-10-06T14:54:43.027Z,1.80
2022-10-06T14:57:24.692Z,1.80
2022-10-06T14:59:51.949Z,1.70
2022-10-06T15:02:31.718Z,1.40
2022-10-06T15:05:19.447Z,1.60
2022-10-06T15:08:17.197Z,1.70
2022-10-06T15:14:14.596Z,1.60
2022-10-06T15:17:18.986Z,1.60
2022-10-06T15:19:56.762Z,1.20
2022-10-06T15:22:40.315Z,1.50
2022-10-06T15:26:23.648Z,1.50
2022-10-06T15:29:20.002Z,1.70
2022-10-06T15:32:06.354Z,1.70
2022-10-06T15:34:45.321Z,1.70
2022-10-06T15:37:45.145Z,1.70
2022-10-06T15:40:31.957Z,2.00
2022-10-06T15:43:04.835Z,1.80
2022-10-06T15:46:14.931Z,1.70
2022-10-06T15:48:55.587Z,2.00
2022-10-06T15:52:06.482Z,1.70
2022-10-06T15:55:22.915Z,2.00
2022-10-06T15:58:20.802Z,2.00
2022-10-06T16:01:15.793Z,2.00
2022-10-06T16:04:11.047Z,2.20
2022-10-06T16:07:16.598Z,2.10
2022-10-06T16:13:39.665Z,2.60
2022-10-06T16:16:21.628Z,3.00
2022-10-06T16:19:07.665Z,2.50
2022-10-06T16:21:49.152Z,2.70
2022-10-06T16:24:35.286Z,2.60
2022-10-06T16:27:15.995Z,2.90
2022-10-06T16:30:39.687Z,3.00
2022-10-06T16:33:19.564Z,2.70
2022-10-06T16:36:12.178Z,2.90
2022-10-06T16:38:56.335Z,2.70
2022-10-06T16:41:53.179Z,2.80
2022-10-06T16:44:46.598Z,3.20
2022-10-06T16:47:40.301Z,2.50
2022-10-06T16:50:33.752Z,3.10
2022-10-06T16:53:20.042Z,3.10
2022-10-06T16:55:58.485Z,2.80
2022-10-06T16:58:55.625Z,3.00
2022-10-06T17:02:36.740Z,2.70
2022-10-06T17:06:08.646Z,2.80
2022-10-06T17:09:11.607Z,3.10
2022-10-06T17:11:53.598Z,3.30
2022-10-06T17:14:24.415Z,2.80
2022-10-06T17:19:47.195Z,3.30
2022-10-06T17:22:23.394Z,4.00
2022-10-06T17:25:02.028Z,3.90
2022-10-06T17:27:42.132Z,4.70
2022-10-06T17:33:21.060Z,5.00
2022-10-06T17:35:49.457Z,4.10
2022-10-06T17:38:20.362Z,5.00
2022-10-06T17:41:09.282Z,5.10
2022-10-06T17:44:03.585Z,4.70
2022-10-06T17:46:45.305Z,5.40
2022-10-06T17:49:23.425Z,5.50
2022-10-06T17:51:55.274Z,4.50
2022-10-06T17:54:44.617Z,4.70
2022-10-06T17:57:31.405Z,4.90
2022-10-06T18:00:11.790Z,4.40
2022-10-06T18:06:00.952Z,4.60
2022-10-06T18:08:34.451Z,5.30
2022-10-06T18:11:48.441Z,5.20
2022-10-06T18:14:23.733Z,4.80
2022-10-06T18:17:09.866Z,5.30
2022-10-06T18:19:49.216Z,5.60
2022-10-06T18:22:29.922Z,6.20
2022-10-06T18:25:13.893Z,5.90
2022-10-06T18:28:00.177Z,6.30
2022-10-06T18:30:51.841Z,6.30
2022-10-06T18:36:43.978Z,7.20
2022-10-06T18:39:20.160Z,7.40
2022-10-06T18:42:20.384Z,7.60
2022-10-06T18:45:17.829Z,7.10
2022-10-06T18:48:35.869Z,7.40
2022-10-06T18:51:17.375Z,10.30
2022-10-06T18:54:09.568Z,8.90
2022-10-06T18:56:51.875Z,8.30
2022-10-06T18:59:45.645Z,8.10
2022-10-06T19:02:16.056Z,8.00
2022-10-06T19:05:35.438Z,7.40
2022-10-06T19:08:36.722Z,8.70
2022-10-06T19:11:59.720Z,7.70
2022-10-06T19:15:25.725Z,8.20
2022-10-06T19:18:47.333Z,7.70
2022-10-06T19:26:24.812Z,6.70
2022-10-06T19:33:20.202Z,7.40
2022-10-06T19:36:37.154Z,7.60
2022-10-06T19:39:35.565Z,9.30
2022-10-06T19:42:31.386Z,9.00
2022-10-06T19:46:04.079Z,8.20
2022-10-06T19:49:23.672Z,9.70
2022-10-06T19:52:33.427Z,9.60
2022-10-06T19:55:12.839Z,9.30
2022-10-06T19:58:09.989Z,9.00
2022-10-06T20:01:04.085Z,8.90
2022-10-06T20:04:02.675Z,8.90
2022-10-06T20:10:42.007Z,9.10
2022-10-06T20:13:24.074Z,9.00
2022-10-06T20:16:20.280Z,8.20
2022-10-06T20:19:37.792Z,7.90
2022-10-06T20:23:00.385Z,9.20
2022-10-06T20:25:43.788Z,9.40
2022-10-06T20:28:39.590Z,8.50
2022-10-06T20:31:47.599Z,10.30
2022-10-06T20:37:42.851Z,10.80
2022-10-06T20:40:49.642Z,9.90
2022-10-06T20:44:01.745Z,10.90
2022-10-06T20:47:00.026Z,10.40
2022-10-06T20:49:49.812Z,11.00
2022-10-06T20:52:24.306Z,9.80
2022-10-06T20:55:20.301Z,10.70
2022-10-06T20:58:11.491Z,11.90
2022-10-06T21:01:19.721Z,11.20
2022-10-06T21:04:24.283Z,10.80
2022-10-06T21:07:08.439Z,10.70
2022-10-06T21:09:57.813Z,10.60
2022-10-06T21:12:45.158Z,12.30
2022-10-06T21:15:24.105Z,11.30
2022-10-06T21:21:32.663Z,12.70
2022-10-06T21:24:24.460Z,11.80
2022-10-06T21:27:08.665Z,11.90
2022-10-06T21:30:17.623Z,12.10
2022-10-06T21:32:58.648Z,11.30
2022-10-06T21:35:32.961Z,11.00
2022-10-06T21:38:19.988Z,11.00
2022-10-06T21:44:08.955Z,11.60
2022-10-06T21:46:43.539Z,11.70
2022-10-06T21:49:17.602Z,11.70
2022-10-06T21:52:08.403Z,10.90
2022-10-06T21:54:42.178Z,10.50
2022-10-06T21:57:26.342Z,9.60
2022-10-06T22:00:20.132Z,10.00
2022-10-06T22:02:48.560Z,10.90
2022-10-06T22:05:29.568Z,10.80
2022-10-06T22:08:13.519Z,11.90
2022-10-06T22:10:58.288Z,9.80
2022-10-06T22:13:33.478Z,10.70
2022-10-06T22:16:25.952Z,12.00
2022-10-06T22:19:03.359Z,12.30
2022-10-06T22:21:45.438Z,12.40
2022-10-06T22:24:28.364Z,11.40
2022-10-06T22:26:59.222Z,11.20
2022-10-06T22:29:47.566Z,11.80
2022-10-06T22:32:41.057Z,11.50
2022-10-06T22:35:10.003Z,11.70
2022-10-06T22:37:41.937Z,11.30
2022-10-06T22:40:56.639Z,11.10
2022-10-06T22:43:31.055Z,10.50
2022-10-06T22:46:09.676Z,10.80
2022-10-06T22:48:41.518Z,11.40
2022-10-06T22:51:22.816Z,10.20
2022-10-06T22:53:58.300Z,11.90
2022-10-06T22:56:40.980Z,11.40
2022-10-06T22:59:18.404Z,11.40
2022-10-06T23:01:55.037Z,11.80
2022-10-06T23:04:32.831Z,12.10
2022-10-06T23:07:03.709Z,11.10
2022-10-06T23:09:53.919Z,10.20
2022-10-06T23:12:44.879Z,12.50
2022-10-06T23:15:19.383Z,11.60
2022-10-06T23:18:10.820Z,12.40
2022-10-06T23:20:38.269Z,11.20
2022-10-06T23:23:16.698Z,11.40
2022-10-06T23:25:57.451Z,12.80
2022-10-06T23:28:42.743Z,11.60
2022-10-06T23:31:15.645Z,12.20
2022-10-06T23:33:50.513Z,11.20
2022-10-06T23:36:42.877Z,10.50
2022-10-06T23:39:10.899Z,11.80
2022-10-06T23:41:47.638Z,11.60
2022-10-06T23:44:34.633Z,12.00
2022-10-06T23:47:08.336Z,12.30
2022-10-06T23:49:56.083Z,11.40
2022-10-06T23:55:13.311Z,12.10
2022-10-06T23:57:52.207Z,12.00
